Time;durP1;ratioP1;P1;durP2;ratioP2;P2;SDS_P1;SDS_P2;PMS_P1;PMS_P2;Temp;Humidity;BMP_temperature;BMP_pressure;BME280_temperature;BME280_humidity;BME280_pressure;Samples;Min_cycle;Max_cycle;Signal;HPM_P1;HPM_P2
2023/05/30 00:01:49;;;;;;;8.75;4.80;;;;;;;15.74;62.33;99958.84;5115690;28;20374;-76
2023/05/30 00:04:16;;;;;;;7.45;4.82;;;;;;;15.69;62.32;99967.84;5115729;28;20023;-76
2023/05/30 00:06:41;;;;;;;11.38;4.32;;;;;;;15.61;62.26;99949.06;5115628;28;20134;-76
2023/05/30 00:09:07;;;;;;;9.30;4.47;;;;;;;15.57;62.12;99946.72;5115399;28;20490;-76
2023/05/30 00:11:32;;;;;;;12.15;5.25;;;;;;;15.58;61.84;99965.00;5115552;28;20027;-76
2023/05/30 00:13:58;;;;;;;11.05;4.78;;;;;;;15.68;61.62;99966.16;5115147;28;20040;-76
2023/05/30 00:16:24;;;;;;;11.70;4.70;;;;;;;15.69;61.61;99965.22;5115535;28;20383;-76
2023/05/30 00:18:52;;;;;;;9.73;4.53;;;;;;;15.70;61.36;99968.69;5115235;28;20432;-76
2023/05/30 00:21:18;;;;;;;8.52;4.72;;;;;;;15.58;61.50;99946.63;5115368;28;20035;-76
2023/05/30 00:23:45;;;;;;;9.05;4.82;;;;;;;15.52;61.32;99948.81;5115266;28;20020;-76
2023/05/30 00:26:11;;;;;;;10.10;4.60;;;;;;;15.52;61.28;99936.53;5115345;28;20035;-76
2023/05/30 00:28:38;;;;;;;8.52;5.07;;;;;;;15.58;61.53;99956.28;5115237;28;20023;-76
2023/05/30 00:31:05;;;;;;;11.50;4.68;;;;;;;15.57;61.51;99968.56;5115250;28;20383;-76
2023/05/30 00:33:31;;;;;;;7.60;4.75;;;;;;;15.49;62.04;99947.19;5115279;28;20382;-76
2023/05/30 00:35:56;;;;;;;9.52;5.00;;;;;;;15.55;62.37;99959.09;5114748;28;20110;-76
2023/05/30 00:38:21;;;;;;;11.52;5.20;;;;;;;15.47;62.55;99951.72;5114870;28;20055;-76
2023/05/30 00:40:47;;;;;;;7.60;5.22;;;;;;;15.48;62.75;99949.00;5114635;28;20030;-76
2023/05/30 00:43:12;;;;;;;8.38;4.85;;;;;;;15.48;63.06;99961.28;5114784;28;20027;-76
2023/05/30 00:45:38;;;;;;;12.55;5.35;;;;;;;15.63;62.93;99969.97;5115066;28;20419;-76
2023/05/30 00:48:05;;;;;;;8.68;5.00;;;;;;;15.59;62.99;99969.34;5114705;28;20020;-76
2023/05/30 00:50:32;;;;;;;10.27;5.40;;;;;;;15.50;63.15;99946.25;5114835;28;20027;-76
2023/05/30 00:52:58;;;;;;;10.18;4.93;;;;;;;15.56;63.02;99963.44;5114590;28;20030;-76
2023/05/30 00:55:25;;;;;;;9.68;4.97;;;;;;;15.56;63.17;99959.03;5114626;28;20028;-76
2023/05/30 00:57:51;;;;;;;11.02;5.25;;;;;;;15.47;62.75;99952.56;5113108;28;20376;-76
2023/05/30 01:00:17;;;;;;;7.38;4.78;;;;;;;15.31;62.67;99933.44;5078481;28;20051;-76
2023/05/30 01:02:44;;;;;;;8.10;4.70;;;;;;;15.42;63.17;99962.50;5114466;28;20474;-76
2023/05/30 01:05:12;;;;;;;7.47;4.85;;;;;;;15.37;62.72;99937.47;5114333;28;20038;-76
2023/05/30 01:07:44;;;;;;;11.30;5.10;;;;;;;15.35;62.77;99939.34;5114405;28;20032;-76
2023/05/30 01:10:14;;;;;;;8.73;4.63;;;;;;;15.47;62.68;99976.19;5114054;28;20027;-76
2023/05/30 01:12:52;;;;;;;9.73;4.65;;;;;;;15.49;62.63;99976.06;5114514;28;20468;-76
2023/05/30 01:15:24;;;;;;;13.82;5.47;;;;;;;15.49;62.74;99968.19;5114430;28;20441;-76
2023/05/30 01:18:00;;;;;;;9.75;5.03;;;;;;;15.40;62.75;99961.75;5114050;28;20449;-76
2023/05/30 01:20:27;;;;;;;8.20;5.18;;;;;;;15.32;62.76;99948.25;5114210;28;20024;-76
2023/05/30 01:23:52;;;;;;;9.93;4.97;;;;;;;15.36;63.07;99967.28;5114144;28;20020;-76
2023/05/30 01:26:45;;;;;;;11.60;5.10;;;;;;;15.04;63.08;99933.31;5011428;28;20037;-76
2023/05/30 01:29:17;;;;;;;11.60;5.35;;;;;;;15.27;63.15;99978.34;5011025;28;20136;-76
2023/05/30 01:31:44;;;;;;;10.05;4.82;;;;;;;15.01;63.40;99941.41;5011124;28;20169;-76
2023/05/30 01:34:11;;;;;;;9.57;4.75;;;;;;;15.11;63.49;99958.25;5010940;28;20025;-76
2023/05/30 01:36:36;;;;;;;10.93;5.10;;;;;;;14.94;63.81;99945.31;5011060;28;20038;-76
2023/05/30 01:39:02;;;;;;;10.77;5.80;;;;;;;15.05;63.84;99973.53;5011019;28;20120;-76
2023/05/30 01:41:48;;;;;;;14.70;5.60;;;;;;;15.09;63.90;99983.75;5011084;28;20089;-76
2023/05/30 01:44:36;;;;;;;9.23;4.97;;;;;;;14.92;63.97;99981.31;5011393;28;20052;-76
2023/05/30 01:47:46;;;;;;;8.93;5.15;;;;;;;14.82;63.94;99964.41;5010943;28;20045;-76
2023/05/30 01:50:17;;;;;;;10.10;5.07;;;;;;;14.65;64.40;99954.91;4991250;28;20043;-76
2023/05/30 01:52:50;;;;;;;9.57;4.72;;;;;;;14.63;64.21;99977.75;4991327;28;20085;-76
2023/05/30 01:55:18;;;;;;;10.52;5.53;;;;;;;14.49;64.37;99954.94;4991088;28;20434;-76
2023/05/30 01:57:47;;;;;;;8.20;4.75;;;;;;;14.42;64.39;99956.22;5064277;28;20060;-76
2023/05/30 02:00:14;;;;;;;11.02;4.85;;;;;;;14.52;64.42;99983.63;5070022;28;20036;-76
2023/05/30 02:02:41;;;;;;;10.18;5.78;;;;;;;14.49;64.32;99975.91;5070204;28;20040;-76
2023/05/30 02:05:06;;;;;;;12.27;5.30;;;;;;;14.48;64.31;99974.22;5070053;28;20028;-76
2023/05/30 02:07:32;;;;;;;11.32;4.68;;;;;;;14.18;64.26;99940.97;5070228;28;20119;-76
2023/05/30 02:09:57;;;;;;;8.48;4.78;;;;;;;14.31;64.30;99964.69;5069394;28;20131;-76
2023/05/30 02:12:22;;;;;;;11.30;4.75;;;;;;;14.33;64.38;99968.09;5070096;28;20490;-76
2023/05/30 02:14:48;;;;;;;10.05;4.55;;;;;;;14.27;64.36;99967.56;5069992;28;20131;-76
2023/05/30 02:17:13;;;;;;;8.15;4.53;;;;;;;14.42;64.48;99987.69;5069829;28;20033;-76
2023/05/30 02:19:39;;;;;;;10.80;4.90;;;;;;;14.26;64.50;99969.34;5069968;28;20032;-76
2023/05/30 02:22:06;;;;;;;9.18;5.10;;;;;;;14.20;64.87;99980.19;5111310;28;20106;-76
2023/05/30 02:24:31;;;;;;;12.40;5.60;;;;;;;14.18;65.18;99982.88;5060655;28;20044;-76
2023/05/30 02:26:57;;;;;;;13.00;4.68;;;;;;;14.03;65.10;99964.56;5112683;28;20104;-76
2023/05/30 02:29:22;;;;;;;14.60;5.00;;;;;;;14.10;65.18;99979.00;5112728;28;20387;-76
2023/05/30 02:31:48;;;;;;;13.55;5.10;;;;;;;14.10;65.40;99990.31;5112737;28;20019;-76
2023/05/30 02:34:13;;;;;;;12.85;5.85;;;;;;;14.07;65.54;100000.13;5112643;28;20027;-76
2023/05/30 02:36:38;;;;;;;13.35;4.85;;;;;;;13.92;65.69;99986.09;5112999;28;20375;-76
2023/05/30 02:39:06;;;;;;;10.00;4.85;;;;;;;13.89;65.78;99994.13;5112571;28;20134;-76
2023/05/30 02:41:32;;;;;;;9.73;5.03;;;;;;;13.69;66.01;99967.28;5112712;28;20028;-76
2023/05/30 02:43:57;;;;;;;12.70;4.90;;;;;;;13.76;66.50;100004.41;5112394;28;20020;-76
2023/05/30 02:46:22;;;;;;;12.60;4.68;;;;;;;13.62;66.92;99996.47;5112832;28;20020;-76
2023/05/30 02:48:47;;;;;;;12.38;4.97;;;;;;;13.56;66.85;99979.31;5112986;28;20028;-76
2023/05/30 02:51:13;;;;;;;11.15;6.05;;;;;;;13.58;67.09;99987.94;5112699;28;20170;-76
2023/05/30 02:53:39;;;;;;;13.30;5.18;;;;;;;13.65;67.30;100010.25;5112618;28;20024;-76
2023/05/30 02:56:05;;;;;;;13.55;5.45;;;;;;;13.61;67.11;100002.63;5112304;28;20031;-76
2023/05/30 02:58:30;;;;;;;9.25;4.80;;;;;;;13.66;67.29;100001.47;5112412;28;20032;-76
2023/05/30 03:00:56;;;;;;;10.65;4.85;;;;;;;13.41;67.39;99978.38;5112443;28;20031;-76
2023/05/30 03:03:24;;;;;;;14.30;5.88;;;;;;;13.38;67.79;99988.16;5112406;28;20027;-76
2023/05/30 03:05:50;;;;;;;15.75;5.38;;;;;;;13.36;67.91;99995.25;5112501;28;20019;-76
2023/05/30 03:08:15;;;;;;;10.18;4.95;;;;;;;13.23;67.84;99990.66;5112169;28;20090;-76
2023/05/30 03:10:41;;;;;;;10.48;4.50;;;;;;;13.40;68.19;100017.69;5112401;28;20019;-76
2023/05/30 03:13:06;;;;;;;11.68;5.18;;;;;;;13.40;67.78;100021.16;5111833;28;20032;-76
2023/05/30 03:15:31;;;;;;;16.42;5.78;;;;;;;13.39;67.74;100002.91;5112408;28;20052;-76
2023/05/30 03:17:57;;;;;;;11.57;4.82;;;;;;;13.38;67.94;100002.06;5112034;28;20043;-76
2023/05/30 03:20:23;;;;;;;10.02;5.22;;;;;;;13.32;67.88;99997.19;5112383;28;20080;-76
2023/05/30 03:22:48;;;;;;;10.35;4.57;;;;;;;13.48;67.81;100025.97;5116480;28;20027;-76
2023/05/30 03:25:14;;;;;;;8.45;5.15;;;;;;;13.31;67.87;99999.84;5116243;28;20106;-76
2023/05/30 03:27:39;;;;;;;9.30;4.72;;;;;;;13.41;67.96;100017.63;5097938;28;20055;-76
2023/05/30 03:30:05;;;;;;;8.80;4.65;;;;;;;13.53;67.71;100028.38;5116064;28;20027;-76
2023/05/30 03:32:31;;;;;;;12.13;5.30;;;;;;;13.45;67.82;100019.16;5116476;28;20074;-76
2023/05/30 03:34:57;;;;;;;12.82;5.07;;;;;;;13.51;67.73;100019.75;5116133;28;20024;-76
2023/05/30 03:37:22;;;;;;;10.65;5.00;;;;;;;13.46;68.28;100028.69;5116299;28;20119;-76
2023/05/30 03:39:48;;;;;;;10.18;4.70;;;;;;;13.28;68.09;99986.97;5116171;28;20030;-76
2023/05/30 03:42:13;;;;;;;14.38;4.93;;;;;;;13.42;68.44;100018.47;5115771;28;20058;-76
2023/05/30 03:44:38;;;;;;;12.68;5.68;;;;;;;13.25;68.46;99995.78;5116223;28;20023;-76
2023/05/30 03:47:04;;;;;;;10.75;5.07;;;;;;;13.31;68.87;100010.31;5115948;28;20032;-76
2023/05/30 03:49:30;;;;;;;10.32;5.13;;;;;;;13.40;69.02;100036.88;5116022;28;20515;-76
2023/05/30 03:51:55;;;;;;;10.50;4.90;;;;;;;13.39;69.39;100042.16;5079746;28;20123;-76
2023/05/30 03:54:20;;;;;;;13.52;5.55;;;;;;;13.26;69.22;100004.47;5115830;28;20490;-76
2023/05/30 03:56:46;;;;;;;13.27;5.75;;;;;;;13.50;69.34;100047.69;5115784;28;20015;-76
2023/05/30 03:59:11;;;;;;;11.85;5.35;;;;;;;13.59;68.97;100056.81;5115515;28;20035;-76
2023/05/30 04:01:37;;;;;;;12.98;5.45;;;;;;;13.54;69.17;100049.22;5115775;28;20027;-76
2023/05/30 04:04:03;;;;;;;14.75;5.55;;;;;;;13.63;69.01;100050.50;5115601;28;20515;-76
2023/05/30 04:06:29;;;;;;;9.98;5.20;;;;;;;13.74;68.57;100029.84;5115850;28;20028;-76
2023/05/30 04:08:55;;;;;;;10.63;5.30;;;;;;;14.10;67.50;100026.16;5115601;28;20031;-76
2023/05/30 04:11:21;;;;;;;8.45;4.82;;;;;;;15.06;65.34;100054.78;5115424;28;20027;-76
2023/05/30 04:13:46;;;;;;;9.45;4.43;;;;;;;16.21;62.20;100024.13;5115569;28;20059;-76
2023/05/30 04:16:12;;;;;;;8.65;4.85;;;;;;;17.78;58.19;100054.88;5115465;28;20054;-76
2023/05/30 04:18:43;;;;;;;11.15;5.75;;;;;;;18.63;55.87;100050.50;5115275;28;20467;-76
2023/05/30 04:21:09;;;;;;;11.13;4.70;;;;;;;18.53;55.17;100016.97;5115178;28;20024;-76
2023/05/30 04:23:38;;;;;;;11.32;5.32;;;;;;;18.05;56.17;100038.91;5115240;28;20032;-76
2023/05/30 04:26:04;;;;;;;10.93;5.05;;;;;;;17.63;56.90;100048.84;5114895;28;20463;-76
2023/05/30 04:28:29;;;;;;;8.45;4.68;;;;;;;17.48;57.57;100067.50;5115301;28;20027;-76
2023/05/30 04:30:56;;;;;;;13.82;5.00;;;;;;;17.50;57.44;100062.97;5115291;28;20102;-76
2023/05/30 04:33:21;;;;;;;11.30;4.75;;;;;;;17.83;56.84;100070.38;5114832;28;20410;-76
2023/05/30 04:35:50;;;;;;;11.55;4.90;;;;;;;18.55;54.91;100073.97;5115009;28;20106;-76
2023/05/30 04:38:20;;;;;;;8.00;4.45;;;;;;;19.50;53.00;100068.66;5114680;28;20063;-76
2023/05/30 04:40:52;;;;;;;13.00;5.28;;;;;;;20.23;50.84;100070.00;5114911;28;20378;-76
2023/05/30 04:43:19;;;;;;;13.45;5.53;;;;;;;20.10;51.09;100056.91;5114752;28;20031;-76
2023/05/30 04:45:49;;;;;;;8.50;4.60;;;;;;;19.88;51.49;100074.47;5115007;28;20032;-76
2023/05/30 04:48:15;;;;;;;9.63;4.80;;;;;;;19.14;52.97;100063.44;5114682;28;20399;-77
2023/05/30 04:50:41;;;;;;;12.05;4.75;;;;;;;18.94;53.87;100062.28;5114723;28;20037;-77
2023/05/30 04:53:06;;;;;;;9.55;4.90;;;;;;;19.12;54.12;100081.16;5114431;28;20035;-77
2023/05/30 04:55:31;;;;;;;11.27;4.78;;;;;;;19.25;53.53;100088.16;5114822;28;20028;-77
2023/05/30 04:57:57;;;;;;;13.43;5.10;;;;;;;19.38;53.09;100076.56;5114535;28;20364;-77
2023/05/30 05:00:22;;;;;;;14.48;5.53;;;;;;;20.14;51.46;100064.50;5114607;28;20547;-77
2023/05/30 05:02:48;;;;;;;14.20;5.03;;;;;;;21.07;49.54;100076.34;5115254;28;20063;-77
2023/05/30 05:05:13;;;;;;;10.35;5.72;;;;;;;21.38;49.29;100074.66;5114202;28;20072;-77
2023/05/30 05:07:39;;;;;;;12.98;5.38;;;;;;;21.32;48.91;100093.69;5114410;28;20023;-76
2023/05/30 05:10:05;;;;;;;10.93;5.53;;;;;;;20.56;50.46;100082.31;5114265;28;20027;-77
2023/05/30 05:12:30;;;;;;;11.48;5.10;;;;;;;20.04;51.62;100079.38;5114279;28;20028;-77
2023/05/30 05:14:57;;;;;;;10.75;5.03;;;;;;;19.77;51.81;100068.38;5114397;28;20122;-77
2023/05/30 05:17:24;;;;;;;10.68;4.45;;;;;;;20.28;51.49;100096.94;5113990;28;20019;-77
2023/05/30 05:19:49;;;;;;;11.55;5.78;;;;;;;20.64;50.81;100085.19;5114152;28;20032;-77
2023/05/30 05:22:15;;;;;;;8.60;4.60;;;;;;;21.00;49.86;100085.78;5113827;28;20348;-77
2023/05/30 05:24:40;;;;;;;10.23;4.70;;;;;;;21.95;48.31;100093.63;5114561;28;20035;-77
2023/05/30 05:27:06;;;;;;;12.48;6.30;;;;;;;22.48;46.95;100090.75;5113935;28;20409;-77
2023/05/30 05:29:31;;;;;;;11.20;5.55;;;;;;;22.12;47.12;100080.63;5114159;28;20058;-77
2023/05/30 05:31:57;;;;;;;11.18;4.78;;;;;;;21.71;48.20;100099.25;5114017;28;20439;-77
2023/05/30 05:34:22;;;;;;;10.52;4.38;;;;;;;21.28;48.75;100079.88;5113696;28;20495;-77
2023/05/30 05:36:47;;;;;;;8.45;5.15;;;;;;;21.10;49.03;100087.53;5095337;28;20491;-77
2023/05/30 05:39:13;;;;;;;12.30;4.90;;;;;;;21.26;49.25;100102.97;5113712;28;20059;-77
2023/05/30 05:41:39;;;;;;;12.02;5.30;;;;;;;21.79;48.33;100118.84;5113905;28;20020;-77
2023/05/30 05:44:04;;;;;;;8.60;4.20;;;;;;;21.90;47.74;100094.84;5112950;28;20031;-77
2023/05/30 05:46:30;;;;;;;10.20;4.45;;;;;;;22.21;47.49;100112.63;5113712;28;20070;-77
2023/05/30 05:48:55;;;;;;;12.63;5.03;;;;;;;22.58;46.87;100100.38;5113564;28;20031;-77
2023/05/30 05:51:21;;;;;;;11.73;4.88;;;;;;;22.82;46.87;100117.75;5113548;28;20020;-77
2023/05/30 05:53:46;;;;;;;10.98;4.72;;;;;;;22.67;46.96;100127.97;5113564;28;20020;-77
2023/05/30 05:56:12;;;;;;;10.40;4.45;;;;;;;22.80;46.77;100096.66;5113352;28;20020;-77
2023/05/30 05:58:37;;;;;;;9.15;4.05;;;;;;;22.98;46.22;100104.81;5113511;28;20031;-77
2023/05/30 06:01:02;;;;;;;10.73;3.58;;;;;;;23.57;45.19;100130.34;5113426;28;20467;-77
2023/05/30 06:03:28;;;;;;;12.68;4.13;;;;;;;23.95;44.32;100099.31;5113287;28;20027;-77
2023/05/30 06:05:53;;;;;;;8.25;4.30;;;;;;;25.01;43.63;100121.81;5113188;28;20560;-77
2023/05/30 06:08:18;;;;;;;10.63;4.25;;;;;;;25.42;42.40;100113.34;5113450;28;20055;-77
2023/05/30 06:10:44;;;;;;;10.63;4.10;;;;;;;25.98;42.20;100136.03;5113359;28;20051;-77
2023/05/30 06:13:09;;;;;;;7.63;4.10;;;;;;;26.51;40.93;100143.00;5112861;28;20027;-77
2023/05/30 06:15:35;;;;;;;10.70;4.43;;;;;;;27.33;40.33;100142.09;5113198;28;20028;-77
2023/05/30 06:18:00;;;;;;;9.93;3.72;;;;;;;27.80;39.50;100141.41;5113049;28;20459;-77
2023/05/30 06:20:25;;;;;;;10.05;3.65;;;;;;;27.73;39.49;100151.16;5112806;28;20474;-77
2023/05/30 06:22:51;;;;;;;14.13;4.93;;;;;;;27.47;39.84;100132.56;5113220;28;20078;-78
2023/05/30 06:25:17;;;;;;;9.95;3.97;;;;;;;27.62;39.44;100151.44;5112835;28;20020;-78
2023/05/30 06:27:42;;;;;;;9.45;4.68;;;;;;;28.29;38.96;100148.47;5112921;28;20075;-78
2023/05/30 06:30:08;;;;;;;8.00;5.25;;;;;;;29.71;37.69;100153.41;5112689;28;20521;-78
2023/05/30 06:32:33;;;;;;;6.97;3.95;;;;;;;30.67;36.39;100153.44;5112796;28;20518;-78
2023/05/30 06:34:58;;;;;;;5.18;3.35;;;;;;;31.85;35.29;100146.69;5112822;28;20497;-78
2023/05/30 06:37:24;;;;;;;8.45;3.42;;;;;;;33.19;34.13;100155.09;5112404;28;20024;-78
2023/05/30 06:39:49;;;;;;;9.38;4.60;;;;;;;34.26;32.60;100170.19;5112959;28;20023;-78
2023/05/30 06:42:14;;;;;;;8.45;4.38;;;;;;;34.65;31.82;100152.13;5112486;28;20111;-78
2023/05/30 06:44:40;;;;;;;7.22;3.38;;;;;;;34.85;32.48;100146.59;5112741;28;20019;-78
2023/05/30 06:47:06;;;;;;;8.48;4.18;;;;;;;35.55;31.22;100146.53;5112599;28;20436;-78
2023/05/30 06:49:31;;;;;;;6.63;3.45;;;;;;;36.16;30.79;100157.38;5112560;28;20114;-78
2023/05/30 06:51:56;;;;;;;8.18;3.90;;;;;;;36.18;30.17;100162.56;5112471;28;20027;-78
2023/05/30 06:54:22;;;;;;;7.93;3.75;;;;;;;36.07;30.29;100185.00;5112254;28;20023;-78
2023/05/30 06:56:47;;;;;;;6.30;3.65;;;;;;;36.65;30.12;100174.50;5111603;28;20375;-79
2023/05/30 06:59:13;;;;;;;7.22;3.75;;;;;;;37.17;29.06;100168.56;5112343;28;20065;-79
2023/05/30 07:01:38;;;;;;;8.05;4.05;;;;;;;37.53;29.50;100185.75;5112534;28;20034;-79
2023/05/30 07:04:03;;;;;;;9.52;4.03;;;;;;;38.17;28.54;100167.63;5112467;28;20082;-79
2023/05/30 07:06:29;;;;;;;7.40;3.70;;;;;;;38.17;28.46;100183.94;5112300;28;20346;-79
2023/05/30 07:08:54;;;;;;;7.70;3.83;;;;;;;37.86;28.46;100183.28;5112518;28;20028;-79
2023/05/30 07:11:20;;;;;;;5.38;3.80;;;;;;;37.66;28.59;100191.78;5111961;28;20034;-78
2023/05/30 07:13:45;;;;;;;6.65;3.65;;;;;;;37.57;28.81;100178.78;5112055;28;20131;-78
2023/05/30 07:16:11;;;;;;;5.35;3.38;;;;;;;37.25;28.27;100180.97;5112067;28;20487;-78
2023/05/30 07:18:36;;;;;;;7.07;3.90;;;;;;;36.75;29.13;100195.69;5112294;28;20032;-78
2023/05/30 07:21:01;;;;;;;6.38;2.97;;;;;;;36.92;28.84;100157.84;5112713;28;20486;-78
2023/05/30 07:23:27;;;;;;;7.68;4.13;;;;;;;37.32;29.29;100181.69;5112144;28;20110;-78
2023/05/30 07:25:52;;;;;;;8.70;4.00;;;;;;;37.68;29.00;100176.06;5112338;28;20047;-79
2023/05/30 07:28:20;;;;;;;6.95;3.47;;;;;;;37.84;28.42;100179.97;5111940;28;20047;-78
2023/05/30 07:30:45;;;;;;;9.52;4.45;;;;;;;38.09;28.96;100189.75;5112193;28;20020;-78
2023/05/30 07:33:11;;;;;;;10.32;3.92;;;;;;;38.69;28.30;100192.94;5112138;28;20467;-79
2023/05/30 07:35:36;;;;;;;6.93;3.60;;;;;;;39.19;28.33;100183.25;5111993;28;20068;-79
2023/05/30 07:38:01;;;;;;;8.52;4.20;;;;;;;39.48;27.58;100169.53;5111955;28;20031;-79
2023/05/30 07:40:26;;;;;;;8.32;3.90;;;;;;;39.60;27.60;100184.72;5111939;28;20016;-79
2023/05/30 07:42:52;;;;;;;5.75;3.65;;;;;;;40.01;27.48;100179.88;5112020;28;20028;-79
2023/05/30 07:45:19;;;;;;;9.15;4.00;;;;;;;40.28;27.31;100199.06;5111820;28;20081;-79
2023/05/30 07:47:44;;;;;;;11.63;4.85;;;;;;;40.10;27.09;100200.22;5111790;28;20475;-79
2023/05/30 07:50:10;;;;;;;5.78;3.80;;;;;;;40.20;26.85;100188.59;5111620;28;20026;-79
2023/05/30 07:52:36;;;;;;;6.60;3.42;;;;;;;40.12;26.69;100187.16;5104037;28;20032;-79
2023/05/30 07:55:02;;;;;;;6.50;3.80;;;;;;;40.45;26.50;100199.00;5097924;28;20031;-79
2023/05/30 07:57:28;;;;;;;7.20;3.72;;;;;;;39.86;26.81;100198.75;5112178;28;20031;-79
2023/05/30 07:59:53;;;;;;;7.70;3.72;;;;;;;39.50;27.07;100183.75;5111504;28;20479;-79
2023/05/30 08:02:20;;;;;;;6.50;3.67;;;;;;;39.23;26.31;100183.59;5111458;28;20119;-78
2023/05/30 08:04:46;;;;;;;7.35;4.07;;;;;;;38.76;26.72;100181.06;5111261;28;20023;-78
2023/05/30 08:07:11;;;;;;;8.40;3.75;;;;;;;37.71;27.73;100172.03;5112561;28;20489;-78
2023/05/30 08:09:36;;;;;;;7.13;4.10;;;;;;;36.02;28.51;100176.72;5115337;28;20027;-78
2023/05/30 08:12:05;;;;;;;8.80;4.10;;;;;;;34.42;30.26;100180.50;5115538;28;20028;-78
2023/05/30 08:14:31;;;;;;;9.68;4.03;;;;;;;32.40;31.60;100194.28;5115094;28;20060;-78
2023/05/30 08:16:56;;;;;;;7.30;3.50;;;;;;;31.07;32.99;100168.16;5115512;28;20023;-77
2023/05/30 08:19:22;;;;;;;6.47;3.25;;;;;;;30.32;33.69;100189.00;5115441;28;20039;-77
2023/05/30 08:21:47;;;;;;;6.85;3.58;;;;;;;29.41;33.97;100147.09;5115673;28;20020;-77
2023/05/30 08:24:15;;;;;;;8.23;3.83;;;;;;;28.59;35.39;100161.06;5115308;28;20103;-77
2023/05/30 08:26:41;;;;;;;7.25;3.70;;;;;;;28.30;36.27;100179.59;5115065;28;20429;-77
2023/05/30 08:29:06;;;;;;;6.28;3.33;;;;;;;27.80;35.35;100151.28;5115203;28;20123;-77
2023/05/30 08:31:32;;;;;;;6.90;3.47;;;;;;;27.44;35.52;100154.31;5114955;28;20098;-77
2023/05/30 08:33:58;;;;;;;8.68;3.60;;;;;;;27.14;35.75;100152.28;5115031;28;20542;-77
2023/05/30 08:36:23;;;;;;;7.65;3.30;;;;;;;26.85;36.22;100169.63;5114821;28;20499;-77
2023/05/30 08:38:54;;;;;;;9.52;3.47;;;;;;;26.66;36.53;100162.72;5115197;28;20032;-77
2023/05/30 08:41:21;;;;;;;6.28;3.25;;;;;;;26.56;36.98;100172.72;5114908;28;20024;-77
2023/05/30 08:43:46;;;;;;;4.75;2.50;;;;;;;26.43;37.48;100170.47;5114895;28;20039;-77
2023/05/30 08:46:13;;;;;;;5.88;2.92;;;;;;;26.09;34.95;100171.31;5114746;28;20379;-77
2023/05/30 08:48:41;;;;;;;7.05;3.00;;;;;;;25.82;36.80;100185.66;5114731;28;20119;-77
2023/05/30 08:51:08;;;;;;;7.57;3.60;;;;;;;25.56;36.02;100187.44;5114965;28;20103;-77
2023/05/30 08:53:41;;;;;;;6.28;3.10;;;;;;;25.27;35.77;100182.38;5114729;28;20019;-77
2023/05/30 08:56:13;;;;;;;7.45;3.35;;;;;;;24.96;36.98;100179.22;5114618;28;20031;-77
2023/05/30 08:58:44;;;;;;;7.28;3.38;;;;;;;24.62;38.13;100164.72;5114726;28;20440;-77
2023/05/30 09:01:10;;;;;;;9.65;4.03;;;;;;;24.25;37.67;100169.22;5114982;28;20026;-77
2023/05/30 09:03:37;;;;;;;7.45;3.90;;;;;;;24.01;38.92;100162.56;5114575;28;20028;-77
2023/05/30 09:06:03;;;;;;;7.07;3.03;;;;;;;23.83;39.55;100162.50;5115058;28;20026;-77
2023/05/30 09:08:29;;;;;;;8.30;3.65;;;;;;;23.98;39.38;100188.66;5114695;28;20027;-77
2023/05/30 09:10:55;;;;;;;13.23;3.50;;;;;;;23.73;40.51;100190.94;5114520;28;20023;-77
2023/05/30 09:13:21;;;;;;;6.35;3.35;;;;;;;23.71;40.44;100182.25;5113960;28;20051;-77
2023/05/30 09:15:46;;;;;;;8.15;3.28;;;;;;;23.78;41.68;100178.06;5114637;28;20138;-77
2023/05/30 09:18:12;;;;;;;6.72;2.85;;;;;;;23.76;41.21;100176.50;5111632;28;20039;-77
2023/05/30 09:20:39;;;;;;;8.05;3.42;;;;;;;23.90;39.44;100189.38;5105956;28;20069;-77
2023/05/30 09:23:05;;;;;;;9.27;3.60;;;;;;;23.77;39.25;100168.41;5114060;28;20047;-77
2023/05/30 09:25:44;;;;;;;5.63;2.90;;;;;;;23.68;38.92;100155.09;5113699;28;20020;-77
2023/05/30 09:28:10;;;;;;;8.05;3.17;;;;;;;23.90;39.87;100176.06;5113786;28;20023;-77
2023/05/30 09:30:52;;;;;;;7.93;3.20;;;;;;;23.90;39.47;100173.41;5113784;28;20016;-77
2023/05/30 09:33:17;;;;;;;7.43;3.13;;;;;;;23.79;38.14;100179.72;5113832;28;20466;-77
2023/05/30 09:35:46;;;;;;;6.63;3.03;;;;;;;23.60;39.13;100185.91;5113812;28;20027;-77
2023/05/30 09:38:15;;;;;;;6.72;3.15;;;;;;;23.64;39.31;100181.97;5113841;28;20038;-77
2023/05/30 09:40:41;;;;;;;7.05;2.80;;;;;;;23.72;38.15;100178.59;5113787;28;20028;-77
2023/05/30 09:43:06;;;;;;;6.57;2.83;;;;;;;23.61;38.17;100160.97;5114009;28;20372;-77
2023/05/30 09:45:31;;;;;;;8.32;3.17;;;;;;;23.52;36.98;100164.50;5113678;28;20562;-77
2023/05/30 09:47:57;;;;;;;7.05;3.17;;;;;;;23.61;37.15;100187.56;5113651;28;20047;-77
2023/05/30 09:50:23;;;;;;;5.05;2.95;;;;;;;23.47;35.80;100180.03;5113501;28;20028;-77
2023/05/30 09:52:55;;;;;;;6.30;2.70;;;;;;;23.28;34.97;100172.06;5113609;28;20382;-77
2023/05/30 09:55:20;;;;;;;4.85;3.03;;;;;;;23.26;34.25;100185.50;5113395;28;20042;-77
2023/05/30 09:57:50;;;;;;;5.28;3.00;;;;;;;22.81;34.79;100172.69;5113440;28;20027;-76
2023/05/30 10:00:22;;;;;;;4.63;2.50;;;;;;;22.59;34.70;100194.19;5113627;28;20413;-77
2023/05/30 10:02:56;;;;;;;6.03;2.63;;;;;;;22.27;34.61;100181.91;5113633;28;20352;-76
2023/05/30 10:05:28;;;;;;;3.92;2.40;;;;;;;22.28;34.04;100201.31;5113089;28;20031;-77
2023/05/30 10:07:58;;;;;;;3.83;2.55;;;;;;;22.21;33.65;100198.38;5113431;28;20035;-76
2023/05/30 10:10:24;;;;;;;3.55;2.35;;;;;;;22.12;33.17;100172.56;5113435;28;20098;-77
2023/05/30 10:12:51;;;;;;;2.40;1.92;;;;;;;22.27;32.74;100205.78;5113269;28;20027;-77
2023/05/30 10:15:18;;;;;;;3.67;2.30;;;;;;;22.19;32.54;100178.22;5113029;28;20122;-77
2023/05/30 10:17:46;;;;;;;5.15;2.17;;;;;;;22.47;33.70;100206.72;5113158;28;20490;-77
2023/05/30 10:20:15;;;;;;;4.07;2.90;;;;;;;22.45;33.02;100190.06;5112884;28;20468;-76
2023/05/30 10:22:44;;;;;;;6.22;2.58;;;;;;;22.39;33.64;100196.75;5112716;28;20531;-76
2023/05/30 10:25:11;;;;;;;5.18;2.95;;;;;;;22.34;33.68;100193.66;5113026;28;20485;-77
2023/05/30 10:27:48;;;;;;;6.18;2.78;;;;;;;22.36;34.82;100172.28;5112648;28;20035;-77
2023/05/30 10:30:21;;;;;;;3.95;2.60;;;;;;;22.58;33.74;100201.28;5109021;28;20479;-77
2023/05/30 10:32:56;;;;;;;3.53;2.33;;;;;;;22.59;34.36;100200.31;5112799;28;20026;-77
2023/05/30 10:35:22;;;;;;;4.43;3.05;;;;;;;22.38;33.73;100178.31;5112781;28;20024;-77
2023/05/30 10:37:50;;;;;;;3.70;2.38;;;;;;;22.37;33.87;100185.41;5112908;28;20028;-77
2023/05/30 10:40:31;;;;;;;6.65;2.72;;;;;;;22.40;35.30;100202.91;5112849;28;20047;-76
2023/05/30 10:43:21;;;;;;;;;;;;;;;22.31;34.78;100203.69;5113162;28;20023;-77
2023/05/30 10:46:22;;;;;;;7.22;3.03;;;;;;;22.24;33.90;100198.06;5112675;28;19960;-77
2023/05/30 10:48:50;;;;;;;6.57;2.63;;;;;;;22.16;35.07;100205.84;5029434;28;20191;-77
2023/05/30 10:51:15;;;;;;;5.22;2.67;;;;;;;22.11;35.09;100176.19;5029455;28;20037;-77
2023/05/30 10:53:46;;;;;;;7.35;3.10;;;;;;;22.21;35.11;100187.75;5029368;28;20156;-77
2023/05/30 10:56:40;;;;;;;4.38;2.50;;;;;;;22.34;35.15;100196.31;5029661;28;20026;-77
2023/05/30 10:59:18;;;;;;;5.07;2.97;;;;;;;22.24;34.96;100168.88;4970532;28;20043;-77
2023/05/30 11:02:04;;;;;;;4.28;3.13;;;;;;;22.30;35.32;100173.69;4970343;28;20035;-77
2023/05/30 11:04:38;;;;;;;4.10;2.55;;;;;;;22.36;35.38;100166.97;4970340;28;20043;-76
2023/05/30 11:07:05;;;;;;;4.47;2.85;;;;;;;22.47;35.66;100187.28;4970632;28;20604;-77
2023/05/30 11:09:31;;;;;;;5.18;2.83;;;;;;;22.26;35.48;100176.72;4970408;28;20097;-77
2023/05/30 11:11:59;;;;;;;3.83;2.70;;;;;;;22.26;35.66;100190.00;4970574;28;20538;-76
2023/05/30 11:14:29;;;;;;;7.43;3.10;;;;;;;22.09;35.56;100171.03;4970053;28;20098;-77
2023/05/30 11:17:00;;;;;;;5.57;2.90;;;;;;;21.93;36.04;100186.59;4970855;28;20132;-76
2023/05/30 11:19:35;;;;;;;4.18;2.65;;;;;;;21.89;36.40;100201.09;4970350;28;20035;-76
2023/05/30 11:22:02;;;;;;;5.95;2.83;;;;;;;21.84;37.37;100159.03;4970625;28;20031;-76
2023/05/30 11:24:29;;;;;;;6.15;2.80;;;;;;;22.07;36.90;100182.75;4970285;28;20030;-76
2023/05/30 11:26:57;;;;;;;7.75;3.30;;;;;;;22.14;36.96;100175.97;5024339;28;20042;-77